Wh Blount — C6JT8 — position and weather

sailwx.info

Track history (hours):
 
Tides and Currents Weather Stations Pressure Air Temp Water Temp Dewpoint Dewpoint Depression Visibility Wind Speed Wind Dir Waves Ship Positions

Wh Blount

Last reported at 2017-Oct-17 18:00 UTC. Time now 2017-Oct-19 22:04 UTC.
Position N 21°00' W 086°36'.

Length 225 m; draft 10.9 m.

Type: Cargo ship. MMSI: 308271000.

Wind from 140 at 2 knots

Barometer 1013.9 mb
Air temperature 30.0 ° C
Visibility: greater than 5.4 NM
Dewpoint 24.3 ° C

Date/timePositionNaut miles runAvg speedWind from/ knotsBaromVisibWave heightAir tempDewpointWater temp
2017-Oct-17 18:00N 21°00' W 086°36'2314.8 140 / 21013.9 5.4 30.024.3
2017-Oct-17 16:25N 20°43' W 086°53'615.2
2017-Oct-17 16:01N 20°38' W 086°57'714.4
2017-Oct-17 15:30N 20°35' W 087°04'4 0.2
2017-Oct-16 19:17N 20°34' W 087°07'2 4.5
2017-Oct-16 18:53N 20°35' W 087°06'2 5.3
2017-Oct-16 18:30N 20°36' W 087°04'  
2017-Oct-10 10:46N 20°39' W 086°55'412.0
2017-Oct-10 10:27N 20°37' W 086°58'612.1
2017-Oct-10 09:58N 20°35' W 087°04'3 0.2
2017-Oct-09 17:56N 20°34' W 087°08'1 2.4
2017-Oct-09 17:21N 20°35' W 087°06'1 2.1
2017-Oct-09 17:00N 20°35' W 087°06'3 5.0
2017-Oct-09 16:28N 20°36' W 087°03'119 3.5
2017-Oct-08 06:00N 22°30' W 087°42'14311.9 180 / 121010.8 5.4 27.024.1
2017-Oct-07 18:00N 23°06' W 090°12'   230 / 191006.3 5.4 30.024.3
Track history (hours):
 
Tides and Currents Weather Stations Pressure Air Temp Water Temp Dewpoint Dewpoint Depression Visibility Wind Speed Wind Dir Waves Ship Positions

Wh Blount

Last reported at 2017-Oct-17 18:00 UTC. Time now 2017-Oct-19 22:04 UTC.
Position N 21°00' W 086°36'.

Length 225 m; draft 10.9 m.

Type: Cargo ship. MMSI: 308271000.

Wind from 140 at 2 knots

Barometer 1013.9 mb
Air temperature 30.0 ° C
Visibility: greater than 5.4 NM
Dewpoint 24.3 ° C

Date/timePositionNaut miles runAvg speedWind from/ knotsBaromVisibWave heightAir tempDewpointWater temp
2017-Oct-17 18:00N 21°00' W 086°36'2314.8 140 / 21013.9 5.4 30.024.3
2017-Oct-17 16:25N 20°43' W 086°53'615.2
2017-Oct-17 16:01N 20°38' W 086°57'714.4
2017-Oct-17 15:30N 20°35' W 087°04'4 0.2
2017-Oct-16 19:17N 20°34' W 087°07'2 4.5
2017-Oct-16 18:53N 20°35' W 087°06'2 5.3
2017-Oct-16 18:30N 20°36' W 087°04'  
2017-Oct-10 10:46N 20°39' W 086°55'412.0
2017-Oct-10 10:27N 20°37' W 086°58'612.1
2017-Oct-10 09:58N 20°35' W 087°04'3 0.2
2017-Oct-09 17:56N 20°34' W 087°08'1 2.4
2017-Oct-09 17:21N 20°35' W 087°06'1 2.1
2017-Oct-09 17:00N 20°35' W 087°06'3 5.0
2017-Oct-09 16:28N 20°36' W 087°03'119 3.5
2017-Oct-08 06:00N 22°30' W 087°42'14311.9 180 / 121010.8 5.4 27.024.1
2017-Oct-07 18:00N 23°06' W 090°12'   230 / 191006.3 5.4 30.024.3

Dump ship's entire track history